createdAt,value
2018-03-30T00:00:08.702Z,987.5
2018-03-30T00:01:09.350Z,987.5
2018-03-30T00:02:09.998Z,987.5
2018-03-30T00:03:10.648Z,987.5
2018-03-30T00:04:11.297Z,987.5
2018-03-30T00:05:11.945Z,987.5
2018-03-30T00:06:12.594Z,987.5
2018-03-30T00:07:13.242Z,987.5
2018-03-30T00:08:13.893Z,987.5
2018-03-30T00:09:14.541Z,987.5
2018-03-30T00:10:15.190Z,987.5
2018-03-30T00:11:15.837Z,987.5
2018-03-30T00:12:16.487Z,987.5
2018-03-30T00:13:17.174Z,987.5
2018-03-30T00:14:17.822Z,987.5
2018-03-30T00:15:18.477Z,987.5
2018-03-30T00:16:19.121Z,987.5
2018-03-30T00:17:19.769Z,987.5
2018-03-30T00:18:20.417Z,987.5
2018-03-30T00:19:21.067Z,987.5
2018-03-30T00:20:21.715Z,987.5
2018-03-30T00:21:22.364Z,987.5
2018-03-30T00:22:23.013Z,987.5
2018-03-30T00:23:23.661Z,987.5
2018-03-30T00:24:24.349Z,987.5
2018-03-30T00:25:24.997Z,987.5
2018-03-30T00:26:25.645Z,987.6
2018-03-30T00:27:26.292Z,987.6
2018-03-30T00:28:26.940Z,987.6
2018-03-30T00:29:27.590Z,987.6
2018-03-30T00:30:28.238Z,987.6
2018-03-30T00:31:28.886Z,987.6
2018-03-30T00:32:29.536Z,987.5
2018-03-30T00:33:30.224Z,987.6
2018-03-30T00:34:30.871Z,987.5
2018-03-30T00:35:31.519Z,987.6
2018-03-30T00:36:32.169Z,987.5
2018-03-30T00:37:32.817Z,987.5
2018-03-30T00:38:33.467Z,987.5
2018-03-30T00:39:34.115Z,987.5
2018-03-30T00:40:34.766Z,987.5
2018-03-30T00:41:35.451Z,987.5
2018-03-30T00:42:36.097Z,987.5
2018-03-30T00:43:36.748Z,987.5
2018-03-30T00:44:37.394Z,987.5
2018-03-30T00:45:38.050Z,987.5
2018-03-30T00:46:38.692Z,987.5
2018-03-30T00:47:39.341Z,987.5
2018-03-30T00:48:40.041Z,987.5
2018-03-30T00:49:40.689Z,987.5
2018-03-30T00:50:41.337Z,987.5
2018-03-30T00:51:41.991Z,987.5
2018-03-30T00:52:42.634Z,987.5
2018-03-30T00:53:43.283Z,987.5
2018-03-30T00:54:43.930Z,987.4
2018-03-30T00:55:44.580Z,987.5
2018-03-30T00:56:45.228Z,987.5
2018-03-30T00:57:45.878Z,987.4
2018-03-30T00:58:46.564Z,987.5
2018-03-30T00:59:47.212Z,987.5
2018-03-30T01:00:47.861Z,987.4
2018-03-30T01:01:48.510Z,987.4
2018-03-30T01:02:49.157Z,987.4
2018-03-30T01:03:49.853Z,987.4
2018-03-30T01:04:50.502Z,987.4
2018-03-30T01:05:51.150Z,987.4
2018-03-30T01:06:51.800Z,987.4
2018-03-30T01:07:52.448Z,987.4
2018-03-30T01:08:53.098Z,987.4
2018-03-30T01:09:53.746Z,987.4
2018-03-30T01:10:54.395Z,987.4
2018-03-30T01:11:55.043Z,987.4
2018-03-30T01:12:55.691Z,987.4
2018-03-30T01:13:56.346Z,987.4
2018-03-30T01:14:56.988Z,987.4
2018-03-30T01:15:57.643Z,987.4
2018-03-30T01:16:58.284Z,987.4
2018-03-30T01:17:58.935Z,987.4
2018-03-30T01:18:59.584Z,987.4
2018-03-30T01:20:00.230Z,987.4
2018-03-30T01:21:00.878Z,987.4
2018-03-30T01:22:01.528Z,987.4
2018-03-30T01:23:02.176Z,987.4
2018-03-30T01:24:02.875Z,987.3
2018-03-30T01:25:03.568Z,987.3
2018-03-30T01:26:04.208Z,987.3
2018-03-30T01:27:04.856Z,987.3
2018-03-30T01:28:05.506Z,987.4
2018-03-30T01:29:06.155Z,987.4
2018-03-30T01:30:06.805Z,987.4
2018-03-30T01:31:07.453Z,987.3
2018-03-30T01:32:08.102Z,987.3
2018-03-30T01:33:08.751Z,987.3
2018-03-30T01:34:09.399Z,987.3
2018-03-30T01:35:10.052Z,987.3
2018-03-30T01:36:10.698Z,987.3
2018-03-30T01:37:11.381Z,987.3
2018-03-30T01:38:12.030Z,987.3
2018-03-30T01:39:12.715Z,987.3
2018-03-30T01:40:13.363Z,987.3
2018-03-30T01:41:14.012Z,987.3
2018-03-30T01:42:14.659Z,987.3
2018-03-30T01:43:15.309Z,987.3
2018-03-30T01:44:15.957Z,987.2
2018-03-30T01:45:16.614Z,987.2
2018-03-30T01:46:17.255Z,987.2
2018-03-30T01:47:17.905Z,987.2
2018-03-30T01:48:18.557Z,987.2
2018-03-30T01:49:19.200Z,987.2
2018-03-30T01:50:19.849Z,987.2
2018-03-30T01:51:20.499Z,987.1
2018-03-30T01:52:21.146Z,987.1
2018-03-30T01:53:21.793Z,987.1
2018-03-30T01:54:22.442Z,987.1
2018-03-30T01:55:23.090Z,987.1
2018-03-30T01:56:23.738Z,987.1
2018-03-30T01:57:24.385Z,987.1
2018-03-30T01:58:25.033Z,987.1
2018-03-30T01:59:25.831Z,987.0
2018-03-30T02:00:26.483Z,987.0
2018-03-30T02:01:27.127Z,987.0
2018-03-30T02:02:27.778Z,987.0
2018-03-30T02:03:28.425Z,987.1
2018-03-30T02:04:29.073Z,987.0
2018-03-30T02:05:29.722Z,987.1
2018-03-30T02:06:30.369Z,987.1
2018-03-30T02:07:31.018Z,987.1
2018-03-30T02:08:31.668Z,987.0
2018-03-30T02:09:32.365Z,987.0
2018-03-30T02:10:33.013Z,987.0
2018-03-30T02:11:33.663Z,987.0
2018-03-30T02:12:34.310Z,986.9
2018-03-30T02:13:34.959Z,986.9
2018-03-30T02:14:35.607Z,987.0
2018-03-30T02:15:36.256Z,987.0
2018-03-30T02:16:36.904Z,986.9
2018-03-30T02:17:37.588Z,986.9
2018-03-30T02:18:38.238Z,986.9
2018-03-30T02:19:38.887Z,986.9
2018-03-30T02:20:39.535Z,986.8
2018-03-30T02:21:40.222Z,986.8
2018-03-30T02:22:40.871Z,986.8
2018-03-30T02:23:41.518Z,986.9
2018-03-30T02:24:42.166Z,986.8
2018-03-30T02:25:42.816Z,986.8
2018-03-30T02:26:43.463Z,986.8
2018-03-30T02:27:44.111Z,986.8
2018-03-30T02:28:44.758Z,986.8
2018-03-30T02:29:45.406Z,986.8
2018-03-30T02:30:46.052Z,986.8
2018-03-30T02:31:46.700Z,986.7
2018-03-30T02:32:47.351Z,986.7
2018-03-30T02:33:48.034Z,986.7
2018-03-30T02:34:48.683Z,986.7
2018-03-30T02:35:49.333Z,986.7
2018-03-30T02:36:49.980Z,986.7
2018-03-30T02:37:50.629Z,986.7
2018-03-30T02:38:51.277Z,986.6
2018-03-30T02:39:51.925Z,986.7
2018-03-30T02:40:52.576Z,986.6
2018-03-30T02:41:53.222Z,986.6
2018-03-30T02:42:53.870Z,986.6
2018-03-30T02:43:54.520Z,986.6
2018-03-30T02:44:55.166Z,986.6
2018-03-30T02:45:55.816Z,986.6
2018-03-30T02:46:56.469Z,986.6
2018-03-30T02:47:57.111Z,986.6
2018-03-30T02:48:57.760Z,986.6
2018-03-30T02:49:58.465Z,986.5
2018-03-30T02:50:59.108Z,986.5
2018-03-30T02:51:59.757Z,986.5
2018-03-30T02:53:00.405Z,986.6
2018-03-30T02:54:01.055Z,986.5
2018-03-30T02:55:01.742Z,986.5
2018-03-30T02:56:02.425Z,986.5
2018-03-30T02:57:03.073Z,986.5
2018-03-30T02:58:03.723Z,986.5
2018-03-30T02:59:04.369Z,986.5
2018-03-30T03:00:05.067Z,986.5
2018-03-30T03:01:05.717Z,986.5
2018-03-30T03:02:06.363Z,986.5
2018-03-30T03:03:07.013Z,986.5
2018-03-30T03:04:07.660Z,986.5
2018-03-30T03:05:08.309Z,986.5
2018-03-30T03:06:08.958Z,986.4
2018-03-30T03:07:09.606Z,986.4
2018-03-30T03:08:10.253Z,986.4
2018-03-30T03:09:10.901Z,986.4
2018-03-30T03:10:11.549Z,986.4
2018-03-30T03:11:12.198Z,986.4
2018-03-30T03:12:12.845Z,986.4
2018-03-30T03:13:13.531Z,986.4
2018-03-30T03:14:14.178Z,986.4
2018-03-30T03:15:14.827Z,986.4
2018-03-30T03:16:15.474Z,986.4
2018-03-30T03:17:16.124Z,986.4
2018-03-30T03:18:16.771Z,986.4
2018-03-30T03:19:17.421Z,986.4
2018-03-30T03:20:18.068Z,986.4
2018-03-30T03:21:18.718Z,986.4
2018-03-30T03:22:19.367Z,986.4
2018-03-30T03:23:20.016Z,986.4
2018-03-30T03:24:20.662Z,986.3
2018-03-30T03:25:21.309Z,986.4
2018-03-30T03:26:21.957Z,986.4
2018-03-30T03:27:22.602Z,986.4
2018-03-30T03:28:23.252Z,986.4
2018-03-30T03:29:23.900Z,986.4
2018-03-30T03:30:24.549Z,986.5
2018-03-30T03:31:25.197Z,986.4
2018-03-30T03:32:25.845Z,986.4
2018-03-30T03:33:26.493Z,986.4
2018-03-30T03:34:27.142Z,986.5
2018-03-30T03:35:27.793Z,986.4
2018-03-30T03:36:28.474Z,986.4
2018-03-30T03:37:29.122Z,986.4
2018-03-30T03:38:29.776Z,986.4
2018-03-30T03:39:30.418Z,986.4
2018-03-30T03:40:31.066Z,986.4
2018-03-30T03:41:31.718Z,986.4
2018-03-30T03:42:32.363Z,986.5
2018-03-30T03:43:33.010Z,986.5
2018-03-30T03:44:33.661Z,986.4
2018-03-30T03:45:34.308Z,986.4
2018-03-30T03:46:34.957Z,986.4
2018-03-30T03:47:35.607Z,986.4
2018-03-30T03:48:36.253Z,986.5
2018-03-30T03:49:36.900Z,986.4
2018-03-30T03:50:37.550Z,986.4
2018-03-30T03:51:38.197Z,986.4
2018-03-30T03:52:38.846Z,986.4
2018-03-30T03:53:39.495Z,986.4
2018-03-30T03:54:40.143Z,986.4
2018-03-30T03:55:40.840Z,986.4
2018-03-30T03:56:41.544Z,986.4
2018-03-30T03:57:42.136Z,986.4
2018-03-30T03:58:42.784Z,986.4
2018-03-30T03:59:43.438Z,986.5
2018-03-30T04:00:44.082Z,986.4
2018-03-30T04:01:44.729Z,986.5
2018-03-30T04:02:45.376Z,986.5
2018-03-30T04:03:46.024Z,986.5
2018-03-30T04:04:46.710Z,986.5
2018-03-30T04:05:47.360Z,986.5
2018-03-30T04:06:48.007Z,986.5
2018-03-30T04:07:48.656Z,986.4
2018-03-30T04:08:49.341Z,986.5
2018-03-30T04:09:49.995Z,986.4
2018-03-30T04:10:50.673Z,986.4
2018-03-30T04:11:51.322Z,986.4
2018-03-30T04:12:51.969Z,986.4
2018-03-30T04:13:52.617Z,986.4
2018-03-30T04:14:53.276Z,986.4
2018-03-30T04:15:54.001Z,986.4
2018-03-30T04:16:54.648Z,986.5
2018-03-30T04:17:55.297Z,986.4
2018-03-30T04:18:55.945Z,986.4
2018-03-30T04:19:56.591Z,986.4
2018-03-30T04:20:57.340Z,986.4
2018-03-30T04:21:57.988Z,986.4
2018-03-30T04:22:58.636Z,986.4
2018-03-30T04:23:59.284Z,986.3
2018-03-30T04:24:59.933Z,986.4
2018-03-30T04:26:00.581Z,986.4
2018-03-30T04:27:01.230Z,986.4
2018-03-30T04:28:01.914Z,986.4
2018-03-30T04:29:02.564Z,986.4
2018-03-30T04:30:03.212Z,986.3
2018-03-30T04:31:03.911Z,986.4
2018-03-30T04:32:04.560Z,986.4
2018-03-30T04:33:05.214Z,986.4
2018-03-30T04:34:05.858Z,986.3
2018-03-30T04:35:06.504Z,986.4
2018-03-30T04:36:07.153Z,986.4
2018-03-30T04:37:07.801Z,986.4
2018-03-30T04:38:08.448Z,986.4
2018-03-30T04:39:09.097Z,986.3
2018-03-30T04:40:09.747Z,986.3
2018-03-30T04:41:10.394Z,986.3
2018-03-30T04:42:11.050Z,986.3
2018-03-30T04:43:11.694Z,986.3
2018-03-30T04:44:12.342Z,986.3
2018-03-30T04:45:12.992Z,986.3
2018-03-30T04:46:13.641Z,986.3
2018-03-30T04:47:14.295Z,986.3
2018-03-30T04:48:14.979Z,986.3
2018-03-30T04:49:15.628Z,986.3
2018-03-30T04:50:16.280Z,986.3
2018-03-30T04:51:16.928Z,986.3
2018-03-30T04:52:17.576Z,986.3
2018-03-30T04:53:18.225Z,986.3
2018-03-30T04:54:18.873Z,986.3
2018-03-30T04:55:19.530Z,986.4
2018-03-30T04:56:20.173Z,986.3
2018-03-30T04:57:20.827Z,986.4
2018-03-30T04:58:21.474Z,986.4
2018-03-30T04:59:22.124Z,986.4
2018-03-30T05:00:22.776Z,986.4
2018-03-30T05:01:23.425Z,986.4
2018-03-30T05:02:24.075Z,986.4
2018-03-30T05:03:24.732Z,986.4
2018-03-30T05:04:25.378Z,986.5
2018-03-30T05:05:26.031Z,986.4
2018-03-30T05:06:26.675Z,986.4
2018-03-30T05:07:27.326Z,986.4
2018-03-30T05:08:27.977Z,986.5
2018-03-30T05:09:28.630Z,986.5
2018-03-30T05:10:29.280Z,986.6
2018-03-30T05:11:29.933Z,986.6
2018-03-30T05:12:30.583Z,986.6
2018-03-30T05:13:31.235Z,986.5
2018-03-30T05:14:31.888Z,986.6
2018-03-30T05:15:32.540Z,986.6
2018-03-30T05:16:33.234Z,986.5
2018-03-30T05:17:33.847Z,986.5
2018-03-30T05:18:34.492Z,986.5
2018-03-30T05:19:35.146Z,986.5
2018-03-30T05:20:35.798Z,986.6
2018-03-30T05:21:36.503Z,986.5
2018-03-30T05:22:37.148Z,986.6
2018-03-30T05:23:37.799Z,986.6
2018-03-30T05:24:38.451Z,986.6
2018-03-30T05:25:39.106Z,986.6
2018-03-30T05:26:39.756Z,986.6
2018-03-30T05:27:40.409Z,986.6
2018-03-30T05:28:41.061Z,986.6
2018-03-30T05:29:41.713Z,986.6
2018-03-30T05:30:42.368Z,986.5
2018-03-30T05:31:43.022Z,986.5
2018-03-30T05:32:43.676Z,986.5
2018-03-30T05:33:44.328Z,986.5
2018-03-30T05:34:44.978Z,986.5
2018-03-30T05:35:45.632Z,986.5
2018-03-30T05:36:46.286Z,986.5
2018-03-30T05:37:46.940Z,986.5
2018-03-30T05:38:47.592Z,986.4
2018-03-30T05:39:48.262Z,986.4
2018-03-30T05:40:48.897Z,986.4
2018-03-30T05:41:49.549Z,986.4
2018-03-30T05:42:50.202Z,986.4
2018-03-30T05:43:50.855Z,986.4
2018-03-30T05:44:51.508Z,986.4
2018-03-30T05:45:52.162Z,986.4
2018-03-30T05:46:52.865Z,986.4
2018-03-30T05:47:53.519Z,986.4
2018-03-30T05:48:54.171Z,986.5
2018-03-30T05:49:54.827Z,986.5
2018-03-30T05:50:55.498Z,986.5
2018-03-30T05:51:56.186Z,986.5
2018-03-30T05:52:56.838Z,986.5
2018-03-30T05:53:57.491Z,986.5
2018-03-30T05:54:58.145Z,986.6
2018-03-30T05:55:58.798Z,986.5
2018-03-30T05:56:59.451Z,986.5
2018-03-30T05:58:00.105Z,986.5
2018-03-30T05:59:00.759Z,986.4
2018-03-30T06:00:01.412Z,986.4
2018-03-30T06:01:02.067Z,986.5
2018-03-30T06:02:02.757Z,986.5
2018-03-30T06:03:03.412Z,986.5
2018-03-30T06:04:04.066Z,986.5
2018-03-30T06:05:04.718Z,986.6
2018-03-30T06:06:05.373Z,986.6
2018-03-30T06:07:06.026Z,986.6
2018-03-30T06:08:06.741Z,986.6
2018-03-30T06:09:07.334Z,986.6
2018-03-30T06:10:07.989Z,986.6
2018-03-30T06:11:08.639Z,986.7
2018-03-30T06:12:09.298Z,986.7
2018-03-30T06:13:09.946Z,986.7
2018-03-30T06:14:10.600Z,986.7
2018-03-30T06:15:11.260Z,986.7
2018-03-30T06:16:11.909Z,986.7
2018-03-30T06:17:12.563Z,986.7
2018-03-30T06:18:13.215Z,986.7
2018-03-30T06:19:13.901Z,986.8
2018-03-30T06:20:14.523Z,986.8
2018-03-30T06:21:15.178Z,986.7
2018-03-30T06:22:15.883Z,986.8
2018-03-30T06:23:16.535Z,986.8
2018-03-30T06:24:17.189Z,986.8
2018-03-30T06:25:17.844Z,986.8
2018-03-30T06:26:18.532Z,986.7
2018-03-30T06:27:19.188Z,986.7
2018-03-30T06:28:19.842Z,986.7
2018-03-30T06:29:20.495Z,986.7
2018-03-30T06:30:21.150Z,986.7
2018-03-30T06:31:21.804Z,986.7
2018-03-30T06:32:22.486Z,986.7
2018-03-30T06:33:23.111Z,986.7
2018-03-30T06:34:23.765Z,986.7
2018-03-30T06:35:24.423Z,986.7
2018-03-30T06:36:25.072Z,986.7
2018-03-30T06:37:25.794Z,986.7
2018-03-30T06:38:26.431Z,986.7
2018-03-30T06:39:27.085Z,986.6
2018-03-30T06:40:27.741Z,986.7
2018-03-30T06:41:28.398Z,986.6
2018-03-30T06:42:29.053Z,986.6
2018-03-30T06:43:29.743Z,986.6
2018-03-30T06:44:30.400Z,986.6
2018-03-30T06:45:31.055Z,986.6
2018-03-30T06:46:31.747Z,986.6
2018-03-30T06:47:32.402Z,986.6
2018-03-30T06:48:33.056Z,986.6
2018-03-30T06:49:33.712Z,986.6
2018-03-30T06:50:34.368Z,986.6
2018-03-30T06:51:35.061Z,986.5
2018-03-30T06:52:35.767Z,986.5
2018-03-30T06:53:36.422Z,986.5
2018-03-30T06:54:37.079Z,986.5
2018-03-30T06:55:37.733Z,986.5
2018-03-30T06:56:38.389Z,986.6
2018-03-30T06:57:39.106Z,986.5
2018-03-30T06:58:39.699Z,986.5
2018-03-30T06:59:40.358Z,986.5
2018-03-30T07:00:41.009Z,986.5
2018-03-30T07:01:41.666Z,986.5
2018-03-30T07:02:42.320Z,986.5
2018-03-30T07:03:42.974Z,986.5
2018-03-30T07:04:43.631Z,986.5
2018-03-30T07:05:44.286Z,986.5
2018-03-30T07:06:44.944Z,986.5
2018-03-30T07:07:45.640Z,986.5
2018-03-30T07:08:46.288Z,986.5
2018-03-30T07:09:46.943Z,986.5
2018-03-30T07:10:47.598Z,986.5
2018-03-30T07:11:48.254Z,986.5
2018-03-30T07:12:48.947Z,986.4
2018-03-30T07:13:49.608Z,986.4
2018-03-30T07:14:50.260Z,986.5
2018-03-30T07:15:50.918Z,986.4
2018-03-30T07:16:51.608Z,986.5
2018-03-30T07:17:52.263Z,986.4
2018-03-30T07:18:52.919Z,986.4
2018-03-30T07:19:53.577Z,986.4
2018-03-30T07:20:54.231Z,986.4
2018-03-30T07:21:54.886Z,986.4
2018-03-30T07:22:55.542Z,986.4
2018-03-30T07:23:56.198Z,986.4
2018-03-30T07:24:56.890Z,986.4
2018-03-30T07:25:57.512Z,986.4
2018-03-30T07:26:58.169Z,986.3
2018-03-30T07:27:58.879Z,986.4
2018-03-30T07:28:59.530Z,986.4
2018-03-30T07:30:00.190Z,986.3
2018-03-30T07:31:00.880Z,986.3
2018-03-30T07:32:01.539Z,986.3
2018-03-30T07:33:02.196Z,986.3
2018-03-30T07:34:02.856Z,986.3
2018-03-30T07:35:03.514Z,986.3
2018-03-30T07:36:04.172Z,986.3
2018-03-30T07:37:04.828Z,986.3
2018-03-30T07:38:05.487Z,986.2
2018-03-30T07:39:06.145Z,986.2
2018-03-30T07:40:06.803Z,986.2
2018-03-30T07:41:07.463Z,986.1
2018-03-30T07:42:08.123Z,986.2
2018-03-30T07:43:08.834Z,986.2
2018-03-30T07:44:09.494Z,986.2
2018-03-30T07:45:10.155Z,986.2
2018-03-30T07:46:10.814Z,986.2
2018-03-30T07:47:11.475Z,986.2
2018-03-30T07:48:12.136Z,986.2
2018-03-30T07:49:12.794Z,986.2
2018-03-30T07:50:13.455Z,986.3
2018-03-30T07:51:14.115Z,986.2
2018-03-30T07:52:14.775Z,986.2
2018-03-30T07:53:15.437Z,986.2
2018-03-30T07:54:16.097Z,986.2
2018-03-30T07:55:16.758Z,986.3
2018-03-30T07:56:17.418Z,986.3
2018-03-30T07:57:18.077Z,986.3
2018-03-30T07:58:18.738Z,986.3
2018-03-30T07:59:19.401Z,986.3
2018-03-30T08:00:20.060Z,986.3
2018-03-30T08:01:20.721Z,986.3
2018-03-30T08:02:21.389Z,986.3
2018-03-30T08:03:22.087Z,986.3
2018-03-30T08:04:22.749Z,986.3
2018-03-30T08:05:23.410Z,986.2
2018-03-30T08:06:24.072Z,986.2
2018-03-30T08:07:24.734Z,986.2
2018-03-30T08:08:25.449Z,986.2
2018-03-30T08:09:26.145Z,986.1
2018-03-30T08:10:26.835Z,986.1
2018-03-30T08:11:27.473Z,986.1
2018-03-30T08:12:28.134Z,986.1
2018-03-30T08:13:28.795Z,986.1
2018-03-30T08:14:29.457Z,986.1
2018-03-30T08:15:30.120Z,986.1
2018-03-30T08:16:30.782Z,986.0
2018-03-30T08:17:31.445Z,986.0
2018-03-30T08:18:32.108Z,986.1
2018-03-30T08:19:32.773Z,986.0
2018-03-30T08:20:33.473Z,986.0
2018-03-30T08:21:34.134Z,986.1
2018-03-30T08:22:34.817Z,986.1
2018-03-30T08:23:35.459Z,986.0
2018-03-30T08:24:36.122Z,986.1
2018-03-30T08:25:36.785Z,986.0
2018-03-30T08:26:37.459Z,986.0
2018-03-30T08:27:38.112Z,986.0
2018-03-30T08:28:38.773Z,986.0
2018-03-30T08:29:39.435Z,985.9
2018-03-30T08:30:40.098Z,985.9
2018-03-30T08:31:40.777Z,985.9
2018-03-30T08:32:41.421Z,985.9
2018-03-30T08:33:42.084Z,985.9
2018-03-30T08:34:42.746Z,985.9
2018-03-30T08:35:43.410Z,985.9
2018-03-30T08:36:44.073Z,986.0
2018-03-30T08:37:44.733Z,985.9
2018-03-30T08:38:45.396Z,986.0
2018-03-30T08:39:46.058Z,985.9
2018-03-30T08:40:46.721Z,986.0
2018-03-30T08:41:47.406Z,985.9
2018-03-30T08:42:48.084Z,985.9
2018-03-30T08:43:48.749Z,985.9
2018-03-30T08:44:49.410Z,985.9
2018-03-30T08:45:50.072Z,985.8
2018-03-30T08:46:50.736Z,985.8
2018-03-30T08:47:51.397Z,985.8
2018-03-30T08:48:52.064Z,985.8
2018-03-30T08:49:52.722Z,985.8
2018-03-30T08:50:53.386Z,985.8
2018-03-30T08:51:54.051Z,985.8
2018-03-30T08:52:54.714Z,985.8
2018-03-30T08:53:55.375Z,985.8
2018-03-30T08:54:56.036Z,985.8
2018-03-30T08:55:56.700Z,985.8
2018-03-30T08:56:57.363Z,985.8
2018-03-30T08:57:58.026Z,985.8
2018-03-30T08:58:58.689Z,985.8
2018-03-30T08:59:59.352Z,985.7
2018-03-30T09:01:00.017Z,985.8
2018-03-30T09:02:00.680Z,985.7
2018-03-30T09:03:01.382Z,985.7
2018-03-30T09:04:02.042Z,985.7
2018-03-30T09:05:02.706Z,985.7
2018-03-30T09:06:03.369Z,985.7
2018-03-30T09:07:04.031Z,985.6
2018-03-30T09:08:04.696Z,985.6
2018-03-30T09:09:05.362Z,985.7
2018-03-30T09:10:06.024Z,985.7
2018-03-30T09:11:06.688Z,985.6
2018-03-30T09:12:07.349Z,985.6
2018-03-30T09:13:08.015Z,985.6
2018-03-30T09:14:08.814Z,985.6
2018-03-30T09:15:09.476Z,985.6
2018-03-30T09:16:10.141Z,985.6
2018-03-30T09:17:10.805Z,985.6
2018-03-30T09:18:11.468Z,985.6
2018-03-30T09:19:12.135Z,985.6
2018-03-30T09:20:12.833Z,985.6
2018-03-30T09:21:13.494Z,985.5
2018-03-30T09:22:14.156Z,985.5
2018-03-30T09:23:14.819Z,985.5
2018-03-30T09:24:15.483Z,985.5
2018-03-30T09:25:16.146Z,985.4
2018-03-30T09:26:16.809Z,985.4
2018-03-30T09:27:17.475Z,985.4
2018-03-30T09:28:18.176Z,985.4
2018-03-30T09:29:18.889Z,985.4
2018-03-30T09:30:19.551Z,985.3
2018-03-30T09:31:20.213Z,985.4
2018-03-30T09:32:20.877Z,985.3
2018-03-30T09:33:21.541Z,985.3
2018-03-30T09:34:22.205Z,985.3
2018-03-30T09:35:22.867Z,985.3
2018-03-30T09:36:23.532Z,985.3
2018-03-30T09:37:24.236Z,985.2
2018-03-30T09:38:24.898Z,985.2
2018-03-30T09:39:25.622Z,985.2
2018-03-30T09:40:26.226Z,985.1
2018-03-30T09:41:26.892Z,985.1
2018-03-30T09:42:27.555Z,985.1
2018-03-30T09:43:28.219Z,985.0
2018-03-30T09:44:28.921Z,985.0
2018-03-30T09:45:29.586Z,985.1
2018-03-30T09:46:30.250Z,985.0
2018-03-30T09:47:30.913Z,985.0
2018-03-30T09:48:31.578Z,985.0
2018-03-30T09:49:32.279Z,985.0
2018-03-30T09:50:32.944Z,985.0
2018-03-30T09:51:33.608Z,985.0
2018-03-30T09:52:34.274Z,984.9
2018-03-30T09:53:34.938Z,984.9
2018-03-30T09:54:35.602Z,984.9
2018-03-30T09:55:36.266Z,984.9
2018-03-30T09:56:36.929Z,984.9
2018-03-30T09:57:37.594Z,984.9
2018-03-30T09:58:38.259Z,984.9
2018-03-30T09:59:38.924Z,984.8
2018-03-30T10:00:39.591Z,984.8
2018-03-30T10:01:40.256Z,984.8
2018-03-30T10:02:40.919Z,984.8
2018-03-30T10:03:41.584Z,984.8
2018-03-30T10:04:42.249Z,984.8
2018-03-30T10:05:42.911Z,984.8
2018-03-30T10:06:43.574Z,984.8
2018-03-30T10:07:44.237Z,984.8
2018-03-30T10:08:44.904Z,984.7
2018-03-30T10:09:45.569Z,984.7
2018-03-30T10:10:46.232Z,984.7
2018-03-30T10:11:46.902Z,984.6
2018-03-30T10:12:47.558Z,984.6
2018-03-30T10:13:48.257Z,984.6
2018-03-30T10:14:48.921Z,984.6
2018-03-30T10:15:49.623Z,984.6
2018-03-30T10:16:50.285Z,984.6
2018-03-30T10:17:50.947Z,984.6
2018-03-30T10:18:51.612Z,984.6
2018-03-30T10:19:52.276Z,984.5
2018-03-30T10:20:52.944Z,984.5
2018-03-30T10:21:53.602Z,984.5
2018-03-30T10:22:54.267Z,984.5
2018-03-30T10:23:54.932Z,984.5
2018-03-30T10:24:55.598Z,984.5
2018-03-30T10:25:56.300Z,984.5
2018-03-30T10:26:56.961Z,984.4
2018-03-30T10:27:57.626Z,984.4
2018-03-30T10:28:58.289Z,984.4
2018-03-30T10:29:58.951Z,984.4
2018-03-30T10:30:59.616Z,984.3
2018-03-30T10:32:00.280Z,984.3
2018-03-30T10:33:00.945Z,984.3
2018-03-30T10:34:01.609Z,984.3
2018-03-30T10:35:02.272Z,984.3
2018-03-30T10:36:02.966Z,984.2
2018-03-30T10:37:03.598Z,984.2
2018-03-30T10:38:04.262Z,984.2
2018-03-30T10:39:04.925Z,984.2
2018-03-30T10:40:06.394Z,984.2
2018-03-30T10:41:07.053Z,984.2
2018-03-30T10:42:07.718Z,984.2
2018-03-30T10:43:08.381Z,984.2
2018-03-30T10:44:09.079Z,984.2
2018-03-30T10:45:09.742Z,984.1
2018-03-30T10:46:10.406Z,984.2
2018-03-30T10:47:11.071Z,984.1
2018-03-30T10:48:11.733Z,984.1
2018-03-30T10:49:12.397Z,984.1
2018-03-30T10:50:13.058Z,984.1
2018-03-30T10:51:13.722Z,984.0
2018-03-30T10:52:14.385Z,984.0
2018-03-30T10:53:15.048Z,984.0
2018-03-30T10:54:15.710Z,984.0
2018-03-30T10:55:16.373Z,984.0
2018-03-30T10:56:17.038Z,984.0
2018-03-30T10:57:17.735Z,984.0
2018-03-30T10:58:18.361Z,984.0
2018-03-30T10:59:19.023Z,984.0
2018-03-30T11:00:19.706Z,984.0
2018-03-30T11:01:20.349Z,983.9
2018-03-30T11:02:21.011Z,983.9
2018-03-30T11:03:21.676Z,983.9
2018-03-30T11:04:22.341Z,983.9
2018-03-30T11:05:23.014Z,983.9
2018-03-30T11:06:23.668Z,983.8
2018-03-30T11:07:24.328Z,983.9
2018-03-30T11:08:24.992Z,983.9
2018-03-30T11:09:25.654Z,983.8
2018-03-30T11:10:26.318Z,983.8
2018-03-30T11:11:26.979Z,983.8
2018-03-30T11:12:27.645Z,983.8
2018-03-30T11:13:28.308Z,983.8
2018-03-30T11:14:28.970Z,983.7
2018-03-30T11:15:29.632Z,983.8
2018-03-30T11:16:30.303Z,983.8
2018-03-30T11:17:30.960Z,983.8
2018-03-30T11:18:31.624Z,983.7
2018-03-30T11:19:32.287Z,983.8
2018-03-30T11:20:32.949Z,983.7
2018-03-30T11:21:33.615Z,983.7
2018-03-30T11:22:34.317Z,983.7
2018-03-30T11:23:34.980Z,983.7
2018-03-30T11:24:35.664Z,983.6
2018-03-30T11:25:36.306Z,983.6
2018-03-30T11:26:36.970Z,983.7
2018-03-30T11:27:37.646Z,983.5
2018-03-30T11:28:38.334Z,983.5
2018-03-30T11:29:38.996Z,983.5
2018-03-30T11:30:39.659Z,983.5
2018-03-30T11:31:40.323Z,983.4
2018-03-30T11:32:40.985Z,983.4
2018-03-30T11:33:41.683Z,983.4
2018-03-30T11:34:42.344Z,983.4
2018-03-30T11:35:43.011Z,983.4
2018-03-30T11:36:43.710Z,983.4
2018-03-30T11:37:44.372Z,983.4
2018-03-30T11:38:45.035Z,983.3
2018-03-30T11:39:45.698Z,983.3
2018-03-30T11:40:46.362Z,983.2
2018-03-30T11:41:47.025Z,983.2
2018-03-30T11:42:47.684Z,983.2
2018-03-30T11:43:48.350Z,983.1
2018-03-30T11:44:49.014Z,983.1
2018-03-30T11:45:49.676Z,983.1
2018-03-30T11:46:50.338Z,983.1
2018-03-30T11:47:51.001Z,983.1
2018-03-30T11:48:51.665Z,983.0
2018-03-30T11:49:52.328Z,983.0
2018-03-30T11:50:52.995Z,982.9
2018-03-30T11:51:53.692Z,982.9
2018-03-30T11:52:54.356Z,982.9
2018-03-30T11:53:55.019Z,982.9
2018-03-30T11:54:55.681Z,982.8
2018-03-30T11:55:56.352Z,982.8
2018-03-30T11:56:57.007Z,982.8
2018-03-30T11:57:57.668Z,982.8
2018-03-30T11:58:58.332Z,982.8
2018-03-30T11:59:59.001Z,982.8
2018-03-30T12:00:59.657Z,982.8
2018-03-30T12:02:00.319Z,982.8
2018-03-30T12:03:00.982Z,982.7
2018-03-30T12:04:01.681Z,982.7
2018-03-30T12:05:02.345Z,982.6
2018-03-30T12:06:03.058Z,982.6
2018-03-30T12:07:03.720Z,982.5
2018-03-30T12:08:04.385Z,982.6
2018-03-30T12:09:05.048Z,982.5
2018-03-30T12:10:05.712Z,982.5
2018-03-30T12:11:06.374Z,982.4
2018-03-30T12:12:07.039Z,982.5
2018-03-30T12:13:07.699Z,982.5
2018-03-30T12:14:08.363Z,982.4
2018-03-30T12:15:09.025Z,982.5
2018-03-30T12:16:09.690Z,982.5
2018-03-30T12:17:10.351Z,982.4
2018-03-30T12:18:11.023Z,982.5
2018-03-30T12:19:11.679Z,982.3
2018-03-30T12:20:12.342Z,982.4
2018-03-30T12:21:13.004Z,982.4
2018-03-30T12:22:13.668Z,982.4
2018-03-30T12:23:14.333Z,982.4
2018-03-30T12:24:14.994Z,982.3
2018-03-30T12:25:15.659Z,982.4
2018-03-30T12:26:16.329Z,982.3
2018-03-30T12:27:16.991Z,982.4
2018-03-30T12:28:17.657Z,982.3
2018-03-30T12:29:18.319Z,982.3
2018-03-30T12:30:18.985Z,982.3
2018-03-30T12:31:19.648Z,982.3
2018-03-30T12:32:20.312Z,982.3
2018-03-30T12:33:20.976Z,982.3
2018-03-30T12:34:21.640Z,982.3
2018-03-30T12:35:22.304Z,982.2
2018-03-30T12:36:22.974Z,982.2
2018-03-30T12:37:23.637Z,982.2
2018-03-30T12:38:24.299Z,982.1
2018-03-30T12:39:24.963Z,982.1
2018-03-30T12:40:25.626Z,982.1
2018-03-30T12:41:26.296Z,982.0
2018-03-30T12:42:26.959Z,982.0
2018-03-30T12:43:27.656Z,982.0
2018-03-30T12:44:28.322Z,982.0
2018-03-30T12:45:28.987Z,981.9
2018-03-30T12:46:29.656Z,981.9
2018-03-30T12:47:30.323Z,981.9
2018-03-30T12:48:31.019Z,981.9
2018-03-30T12:49:31.685Z,982.0
2018-03-30T12:50:32.347Z,981.8
2018-03-30T12:51:33.059Z,981.8
2018-03-30T12:52:33.722Z,981.8
2018-03-30T12:53:34.386Z,981.8
2018-03-30T12:54:35.051Z,981.8
2018-03-30T12:55:35.718Z,981.8
2018-03-30T12:56:36.384Z,981.8
2018-03-30T12:57:37.056Z,981.8
2018-03-30T12:58:37.710Z,981.7
2018-03-30T12:59:38.380Z,981.6
2018-03-30T13:00:39.037Z,981.7